Impacts METAR Board
IDs:

KFLL - Ft Lauderdale-Hollyw, FL, US

Updated at: 0600 UTC 20 Oct 2018
Potential Impact None Slight Moderate High
Time 19/18Z 19/19Z 19/20Z 19/21Z 19/22Z 19/23Z 20/00Z 20/01Z 20/02Z 20/03Z 20/04Z 20/05Z 20/06Z
Temp85 86 85 84 83 82 81 81 81 80 80 79 78
Dewpt77 75 76 74 75 75 74 75 76 74 74 75 75
Altim30.10 30.08 30.06 30.07 30.06 30.06 30.07 30.08 30.08 30.09 30.08 30.06 30.05
VIS10 10 10 10 10 10 10 10 10 10 10 10 10
CIG-- -- 28 -- -- -- -- -- -- -- -- -- --
CoverSCTSCTBKNSCTFEWSCTSCTSCTSCTFEWFEWFEWFEW
FltCatVFRVFRMVFRVFRVFRVFRVFRVFRVFRVFRVFRVFRVFR
WX--------------------------
WDir11090100908090808090901001000
WSpd12 10 10 10 7 10 7 7 6 7 5 6 0
WGst-- -- -- -- -- -- -- -- -- -- -- -- --
Raw hourly METARs
KFLL 191753Z 11012KT 10SM SCT027 29/25 A3010 RMK AO2 SLP193 T02940250 10300 20267 58019
KFLL 191853Z 09010KT 10SM SCT025 30/24 A3008 RMK AO2 SLP186 T03000239
KFLL 191953Z 10010KT 10SM FEW024 BKN028 29/24 A3006 RMK AO2 SLP180 T02940244
KFLL 192053Z 09010KT 10SM SCT028 29/23 A3007 RMK AO2 SLP181 T02890233 55005
KFLL 192153Z 08007KT 10SM FEW028 28/24 A3006 RMK AO2 SLP179 T02830239
KFLL 192253Z 09010KT 10SM FEW022 SCT026 28/24 A3006 RMK AO2 SLP180 T02780239
KFLL 192353Z 08007KT 10SM SCT026 27/23 A3007 RMK AO2 SLP184 T02720233 10300 20272 53003
KFLL 200053Z 08007KT 10SM SCT026 27/24 A3008 RMK AO2 SLP185 T02720239
KFLL 200153Z 09006KT 10SM SCT026 27/24 A3008 RMK AO2 SLP186 T02720244
KFLL 200253Z 09007KT 10SM FEW026 27/23 A3009 RMK AO2 SLP187 T02670233 51003
KFLL 200353Z 10005KT 10SM FEW026 27/23 A3008 RMK AO2 SLP185 T02670233
KFLL 200453Z 10006KT 10SM FEW027 26/24 A3006 RMK AO2 SLP180 T02610239 403000250
KFLL 200553Z 00000KT 10SM FEW027 26/24 A3005 RMK AO2 SLP176 T02560239 10272 20256 58011



Page loaded:  06:24 UTC  |   11:24 PM Pacific  |   12:24 AM Mountain  |   01:24 AM Central  |   02:24 AM Eastern

 

ADVISORIES

FORECASTS

FORECASTS

OBSERVATIONS

USER TOOLS

ABOUT US